sensor_id;sensor_type;location;lat;lon;timestamp;pressure;altitude;pressure_sealevel;temperature;humidity
81509;BME280;70930;52.412;13.554;2023-09-19T00:01:42;100188.72;;;17.97;78.58
81509;BME280;70930;52.412;13.554;2023-09-19T00:04:32;100188.03;;;17.78;79.13
81509;BME280;70930;52.412;13.554;2023-09-19T00:07:17;100183.81;;;17.70;79.58
81509;BME280;70930;52.412;13.554;2023-09-19T00:10:03;100185.00;;;17.62;79.97
81509;BME280;70930;52.412;13.554;2023-09-19T00:12:48;100179.38;;;17.64;79.84
81509;BME280;70930;52.412;13.554;2023-09-19T00:15:40;100182.91;;;17.53;80.39
81509;BME280;70930;52.412;13.554;2023-09-19T00:18:26;100185.94;;;17.45;80.42
81509;BME280;70930;52.412;13.554;2023-09-19T00:21:14;100187.44;;;17.52;80.17
81509;BME280;70930;52.412;13.554;2023-09-19T00:24:00;100180.00;;;17.54;80.28
81509;BME280;70930;52.412;13.554;2023-09-19T00:26:45;100175.88;;;17.52;79.77
81509;BME280;70930;52.412;13.554;2023-09-19T00:29:31;100178.22;;;17.48;79.78
81509;BME280;70930;52.412;13.554;2023-09-19T00:32:18;100181.25;;;17.52;79.74
81509;BME280;70930;52.412;13.554;2023-09-19T00:35:03;100180.69;;;17.50;79.43
81509;BME280;70930;52.412;13.554;2023-09-19T00:37:51;100169.97;;;17.26;80.21
81509;BME280;70930;52.412;13.554;2023-09-19T00:40:36;100179.19;;;17.42;79.75
81509;BME280;70930;52.412;13.554;2023-09-19T00:43:22;100178.59;;;17.40;79.86
81509;BME280;70930;52.412;13.554;2023-09-19T00:46:09;100170.19;;;17.36;79.63
81509;BME280;70930;52.412;13.554;2023-09-19T00:48:54;100169.50;;;17.41;79.68
81509;BME280;70930;52.412;13.554;2023-09-19T00:51:42;100169.72;;;17.39;79.59
81509;BME280;70930;52.412;13.554;2023-09-19T00:54:33;100170.44;;;17.35;79.73
81509;BME280;70930;52.412;13.554;2023-09-19T00:57:20;100169.72;;;17.28;80.07
81509;BME280;70930;52.412;13.554;2023-09-19T01:00:08;100177.19;;;17.37;79.32
81509;BME280;70930;52.412;13.554;2023-09-19T01:03:00;100176.03;;;17.22;79.98
81509;BME280;70930;52.412;13.554;2023-09-19T01:05:49;100167.84;;;17.28;79.95
81509;BME280;70930;52.412;13.554;2023-09-19T01:08:35;100171.22;;;17.24;80.08
81509;BME280;70930;52.412;13.554;2023-09-19T01:11:37;100165.75;;;17.18;80.16
81509;BME280;70930;52.412;13.554;2023-09-19T01:14:46;100171.34;;;17.17;79.97
81509;BME280;70930;52.412;13.554;2023-09-19T01:17:46;100177.06;;;17.21;80.17
81509;BME280;70930;52.412;13.554;2023-09-19T01:20:39;100170.06;;;17.08;80.50
81509;BME280;70930;52.412;13.554;2023-09-19T01:30:08;100176.94;;;17.04;80.61
81509;BME280;70930;52.412;13.554;2023-09-19T01:32:54;100173.91;;;17.00;80.79
81509;BME280;70930;52.412;13.554;2023-09-19T01:35:40;100180.44;;;17.04;80.72
81509;BME280;70930;52.412;13.554;2023-09-19T01:38:25;100175.66;;;17.06;80.26
81509;BME280;70930;52.412;13.554;2023-09-19T01:41:12;100164.25;;;17.11;79.97
81509;BME280;70930;52.412;13.554;2023-09-19T01:44:02;100172.28;;;16.99;80.44
81509;BME280;70930;52.412;13.554;2023-09-19T01:46:53;100175.44;;;17.08;80.05
81509;BME280;70930;52.412;13.554;2023-09-19T01:52:45;100186.16;;;17.31;78.87
81509;BME280;70930;52.412;13.554;2023-09-19T01:55:37;100178.47;;;17.35;78.53
81509;BME280;70930;52.412;13.554;2023-09-19T01:58:35;100183.13;;;17.28;78.57
81509;BME280;70930;52.412;13.554;2023-09-19T02:01:24;100180.69;;;17.26;78.99
81509;BME280;70930;52.412;13.554;2023-09-19T02:04:12;100178.47;;;17.23;79.26
81509;BME280;70930;52.412;13.554;2023-09-19T02:06:57;100174.16;;;17.10;79.63
81509;BME280;70930;52.412;13.554;2023-09-19T02:09:43;100189.66;;;17.20;79.27
81509;BME280;70930;52.412;13.554;2023-09-19T02:12:28;100192.00;;;17.16;79.02
81509;BME280;70930;52.412;13.554;2023-09-19T02:15:15;100197.13;;;17.06;79.38
81509;BME280;70930;52.412;13.554;2023-09-19T02:18:01;100188.56;;;16.98;80.04
81509;BME280;70930;52.412;13.554;2023-09-19T02:20:48;100194.28;;;16.89;80.55
81509;BME280;70930;52.412;13.554;2023-09-19T02:23:33;100195.34;;;17.00;80.23
81509;BME280;70930;52.412;13.554;2023-09-19T02:26:19;100194.59;;;16.81;80.79
81509;BME280;70930;52.412;13.554;2023-09-19T02:29:05;100198.28;;;16.99;80.19
81509;BME280;70930;52.412;13.554;2023-09-19T02:31:50;100200.00;;;16.93;80.61
81509;BME280;70930;52.412;13.554;2023-09-19T02:34:36;100206.69;;;17.02;79.81
81509;BME280;70930;52.412;13.554;2023-09-19T02:37:21;100206.09;;;17.00;79.92
81509;BME280;70930;52.412;13.554;2023-09-19T02:40:07;100204.66;;;16.86;80.67
81509;BME280;70930;52.412;13.554;2023-09-19T02:43:03;100197.44;;;16.86;80.56
81509;BME280;70930;52.412;13.554;2023-09-19T02:45:50;100205.16;;;16.95;79.92
81509;BME280;70930;52.412;13.554;2023-09-19T02:48:36;100203.06;;;17.08;79.70
81509;BME280;70930;52.412;13.554;2023-09-19T02:51:21;100215.06;;;16.94;80.20
81509;BME280;70930;52.412;13.554;2023-09-19T02:54:07;100219.50;;;17.00;80.03
81509;BME280;70930;52.412;13.554;2023-09-19T02:56:56;100222.25;;;16.93;79.90
81509;BME280;70930;52.412;13.554;2023-09-19T02:59:41;100221.25;;;16.95;80.00
81509;BME280;70930;52.412;13.554;2023-09-19T03:02:29;100234.66;;;16.95;79.68
81509;BME280;70930;52.412;13.554;2023-09-19T03:05:18;100238.63;;;17.04;79.54
81509;BME280;70930;52.412;13.554;2023-09-19T03:08:04;100235.56;;;16.88;79.94
81509;BME280;70930;52.412;13.554;2023-09-19T03:10:50;100238.97;;;16.96;79.87
81509;BME280;70930;52.412;13.554;2023-09-19T03:13:35;100235.97;;;16.74;80.71
81509;BME280;70930;52.412;13.554;2023-09-19T03:16:23;100232.03;;;16.76;80.75
81509;BME280;70930;52.412;13.554;2023-09-19T03:19:08;100240.78;;;16.83;80.45
81509;BME280;70930;52.412;13.554;2023-09-19T03:21:56;100237.75;;;16.61;81.65
81509;BME280;70930;52.412;13.554;2023-09-19T03:24:42;100233.88;;;16.76;80.87
81509;BME280;70930;52.412;13.554;2023-09-19T03:27:28;100242.59;;;16.71;80.79
81509;BME280;70930;52.412;13.554;2023-09-19T03:30:14;100242.34;;;16.73;80.65
81509;BME280;70930;52.412;13.554;2023-09-19T03:33:00;100238.25;;;16.70;80.73
81509;BME280;70930;52.412;13.554;2023-09-19T03:35:52;100233.06;;;16.75;80.34
81509;BME280;70930;52.412;13.554;2023-09-19T03:38:38;100241.16;;;16.87;79.88
81509;BME280;70930;52.412;13.554;2023-09-19T03:41:24;100239.81;;;16.78;80.32
81509;BME280;70930;52.412;13.554;2023-09-19T03:44:09;100249.66;;;16.84;80.25
81509;BME280;70930;52.412;13.554;2023-09-19T03:46:54;100249.78;;;16.89;80.07
81509;BME280;70930;52.412;13.554;2023-09-19T03:49:41;100252.66;;;16.76;80.73
81509;BME280;70930;52.412;13.554;2023-09-19T03:52:27;100260.75;;;16.87;80.21
81509;BME280;70930;52.412;13.554;2023-09-19T03:55:12;100258.50;;;16.84;80.39
81509;BME280;70930;52.412;13.554;2023-09-19T03:57:58;100267.16;;;16.86;80.32
81509;BME280;70930;52.412;13.554;2023-09-19T04:00:43;100266.88;;;16.76;80.03
81509;BME280;70930;52.412;13.554;2023-09-19T04:03:29;100264.56;;;16.80;79.18
81509;BME280;70930;52.412;13.554;2023-09-19T04:06:20;100268.56;;;16.89;78.20
81509;BME280;70930;52.412;13.554;2023-09-19T04:09:05;100265.97;;;16.82;77.93
81509;BME280;70930;52.412;13.554;2023-09-19T04:11:52;100269.59;;;16.88;77.36
81509;BME280;70930;52.412;13.554;2023-09-19T04:14:37;100272.38;;;16.81;77.71
81509;BME280;70930;52.412;13.554;2023-09-19T04:17:23;100267.38;;;16.85;77.21
81509;BME280;70930;52.412;13.554;2023-09-19T04:20:09;100283.91;;;16.82;77.42
81509;BME280;70930;52.412;13.554;2023-09-19T04:22:57;100277.06;;;16.86;76.70
81509;BME280;70930;52.412;13.554;2023-09-19T04:25:43;100280.44;;;16.93;76.02
81509;BME280;70930;52.412;13.554;2023-09-19T04:28:28;100290.13;;;16.82;76.69
81509;BME280;70930;52.412;13.554;2023-09-19T04:31:14;100284.22;;;16.74;76.86
81509;BME280;70930;52.412;13.554;2023-09-19T04:33:59;100291.25;;;16.75;77.04
81509;BME280;70930;52.412;13.554;2023-09-19T04:36:46;100293.97;;;16.86;76.48
81509;BME280;70930;52.412;13.554;2023-09-19T04:39:31;100301.41;;;16.84;76.23
81509;BME280;70930;52.412;13.554;2023-09-19T04:42:17;100307.69;;;16.78;76.29
81509;BME280;70930;52.412;13.554;2023-09-19T04:45:03;100310.31;;;16.66;77.25
81509;BME280;70930;52.412;13.554;2023-09-19T04:47:50;100310.94;;;16.62;77.59
81509;BME280;70930;52.412;13.554;2023-09-19T04:50:35;100310.56;;;16.58;77.64
81509;BME280;70930;52.412;13.554;2023-09-19T04:53:22;100313.06;;;16.60;77.06
81509;BME280;70930;52.412;13.554;2023-09-19T04:56:07;100314.31;;;16.57;76.88
81509;BME280;70930;52.412;13.554;2023-09-19T04:58:53;100317.59;;;16.59;76.66
81509;BME280;70930;52.412;13.554;2023-09-19T05:01:38;100320.66;;;16.44;77.12
81509;BME280;70930;52.412;13.554;2023-09-19T05:04:23;100321.91;;;16.42;76.30
81509;BME280;70930;52.412;13.554;2023-09-19T05:07:09;100332.06;;;16.40;76.20
81509;BME280;70930;52.412;13.554;2023-09-19T05:09:56;100332.81;;;16.47;75.81
81509;BME280;70930;52.412;13.554;2023-09-19T05:12:42;100330.13;;;16.47;75.06
81509;BME280;70930;52.412;13.554;2023-09-19T05:15:31;100343.97;;;16.44;75.08
81509;BME280;70930;52.412;13.554;2023-09-19T05:18:16;100350.50;;;16.48;75.06
81509;BME280;70930;52.412;13.554;2023-09-19T05:21:02;100345.72;;;16.50;74.50
81509;BME280;70930;52.412;13.554;2023-09-19T05:23:48;100348.56;;;16.55;74.32
81509;BME280;70930;52.412;13.554;2023-09-19T05:26:34;100355.44;;;16.51;74.26
81509;BME280;70930;52.412;13.554;2023-09-19T05:29:20;100366.44;;;16.43;74.17
81509;BME280;70930;52.412;13.554;2023-09-19T05:32:05;100362.78;;;16.37;74.12
81509;BME280;70930;52.412;13.554;2023-09-19T05:34:51;100374.56;;;16.36;74.41
81509;BME280;70930;52.412;13.554;2023-09-19T05:37:41;100371.19;;;16.41;73.73
81509;BME280;70930;52.412;13.554;2023-09-19T05:40:26;100376.69;;;16.46;73.40
81509;BME280;70930;52.412;13.554;2023-09-19T05:43:12;100381.91;;;16.41;73.49
81509;BME280;70930;52.412;13.554;2023-09-19T05:46:00;100378.84;;;16.37;73.26
81509;BME280;70930;52.412;13.554;2023-09-19T05:48:45;100377.66;;;16.33;73.20
81509;BME280;70930;52.412;13.554;2023-09-19T05:51:32;100389.63;;;16.31;73.14
81509;BME280;70930;52.412;13.554;2023-09-19T05:54:18;100393.88;;;16.38;72.39
81509;BME280;70930;52.412;13.554;2023-09-19T05:57:05;100402.09;;;16.43;71.83
81509;BME280;70930;52.412;13.554;2023-09-19T05:59:51;100404.97;;;16.42;71.62
81509;BME280;70930;52.412;13.554;2023-09-19T06:02:37;100407.38;;;16.50;71.57
81509;BME280;70930;52.412;13.554;2023-09-19T06:05:24;100415.13;;;16.58;70.97
81509;BME280;70930;52.412;13.554;2023-09-19T06:08:11;100413.66;;;16.62;70.98
81509;BME280;70930;52.412;13.554;2023-09-19T06:10:57;100421.59;;;16.69;70.45
81509;BME280;70930;52.412;13.554;2023-09-19T06:13:42;100424.50;;;16.74;70.01
81509;BME280;70930;52.412;13.554;2023-09-19T06:16:31;100429.94;;;16.86;69.72
81509;BME280;70930;52.412;13.554;2023-09-19T06:19:20;100435.56;;;16.78;69.97
81509;BME280;70930;52.412;13.554;2023-09-19T06:22:07;100441.66;;;16.66;69.92
81509;BME280;70930;52.412;13.554;2023-09-19T06:24:53;100443.44;;;16.73;69.79
81509;BME280;70930;52.412;13.554;2023-09-19T06:27:39;100452.94;;;16.75;69.14
81509;BME280;70930;52.412;13.554;2023-09-19T06:30:27;100461.88;;;16.87;69.11
81509;BME280;70930;52.412;13.554;2023-09-19T06:33:14;100461.81;;;16.94;69.17
81509;BME280;70930;52.412;13.554;2023-09-19T06:36:02;100454.28;;;17.03;68.44
81509;BME280;70930;52.412;13.554;2023-09-19T06:38:48;100461.81;;;16.94;68.61
81509;BME280;70930;52.412;13.554;2023-09-19T06:41:37;100463.44;;;16.95;68.47
81509;BME280;70930;52.412;13.554;2023-09-19T06:44:24;100469.38;;;16.97;67.87
81509;BME280;70930;52.412;13.554;2023-09-19T06:47:09;100472.53;;;16.94;68.25
81509;BME280;70930;52.412;13.554;2023-09-19T06:49:55;100475.19;;;17.31;66.75
81509;BME280;70930;52.412;13.554;2023-09-19T06:52:41;100467.03;;;17.67;66.47
81509;BME280;70930;52.412;13.554;2023-09-19T06:55:26;100466.19;;;17.85;65.49
81509;BME280;70930;52.412;13.554;2023-09-19T06:58:16;100470.63;;;17.91;64.54
81509;BME280;70930;52.412;13.554;2023-09-19T07:01:02;100479.56;;;18.04;64.47
81509;BME280;70930;52.412;13.554;2023-09-19T07:03:48;100486.69;;;18.10;63.95
81509;BME280;70930;52.412;13.554;2023-09-19T07:06:34;100485.53;;;18.18;63.61
81509;BME280;70930;52.412;13.554;2023-09-19T07:09:20;100487.31;;;18.24;64.17
81509;BME280;70930;52.412;13.554;2023-09-19T07:12:07;100490.34;;;18.39;63.88
81509;BME280;70930;52.412;13.554;2023-09-19T07:14:53;100485.81;;;18.63;62.20
81509;BME280;70930;52.412;13.554;2023-09-19T07:17:38;100483.88;;;19.22;60.33
81509;BME280;70930;52.412;13.554;2023-09-19T07:20:24;100486.47;;;19.46;59.92
81509;BME280;70930;52.412;13.554;2023-09-19T07:23:16;100489.66;;;20.17;56.88
81509;BME280;70930;52.412;13.554;2023-09-19T07:26:03;100496.59;;;20.13;56.43
81509;BME280;70930;52.412;13.554;2023-09-19T07:28:50;100494.38;;;20.43;55.97
81509;BME280;70930;52.412;13.554;2023-09-19T07:31:35;100493.97;;;20.68;55.54
81509;BME280;70930;52.412;13.554;2023-09-19T07:34:21;100497.59;;;20.40;55.24
81509;BME280;70930;52.412;13.554;2023-09-19T07:37:08;100506.78;;;20.10;55.76
81509;BME280;70930;52.412;13.554;2023-09-19T07:39:54;100506.50;;;19.78;56.40
81509;BME280;70930;52.412;13.554;2023-09-19T07:42:41;100508.72;;;19.81;57.42
81509;BME280;70930;52.412;13.554;2023-09-19T07:45:30;100523.00;;;19.53;57.74
81509;BME280;70930;52.412;13.554;2023-09-19T07:48:16;100514.81;;;19.36;57.60
81509;BME280;70930;52.412;13.554;2023-09-19T07:51:05;100520.63;;;19.05;56.50
81509;BME280;70930;52.412;13.554;2023-09-19T07:53:51;100526.16;;;18.98;56.02
81509;BME280;70930;52.412;13.554;2023-09-19T07:56:38;100513.13;;;19.19;55.21
81509;BME280;70930;52.412;13.554;2023-09-19T07:59:23;100521.06;;;19.25;54.64
81509;BME280;70930;52.412;13.554;2023-09-19T08:02:08;100531.16;;;19.18;55.39
81509;BME280;70930;52.412;13.554;2023-09-19T08:05:00;100535.50;;;19.07;55.04
81509;BME280;70930;52.412;13.554;2023-09-19T08:07:46;100542.97;;;19.17;55.26
81509;BME280;70930;52.412;13.554;2023-09-19T08:10:34;100544.22;;;19.38;54.45
81509;BME280;70930;52.412;13.554;2023-09-19T08:13:20;100546.09;;;19.37;53.93
81509;BME280;70930;52.412;13.554;2023-09-19T08:16:06;100554.09;;;18.97;54.74
81509;BME280;70930;52.412;13.554;2023-09-19T08:18:52;100543.59;;;18.96;54.76
81509;BME280;70930;52.412;13.554;2023-09-19T08:21:39;100543.31;;;19.09;54.35
81509;BME280;70930;52.412;13.554;2023-09-19T08:24:26;100540.91;;;18.96;53.66
81509;BME280;70930;52.412;13.554;2023-09-19T08:27:13;100524.63;;;19.02;54.20
81509;BME280;70930;52.412;13.554;2023-09-19T08:29:59;100532.03;;;19.35;54.42
81509;BME280;70930;52.412;13.554;2023-09-19T08:32:44;100531.94;;;19.30;52.97
81509;BME280;70930;52.412;13.554;2023-09-19T08:35:31;100539.72;;;18.92;53.03
81509;BME280;70930;52.412;13.554;2023-09-19T08:38:16;100543.34;;;18.85;53.53
81509;BME280;70930;52.412;13.554;2023-09-19T08:41:07;100553.16;;;18.68;53.63
81509;BME280;70930;52.412;13.554;2023-09-19T08:43:59;100556.44;;;18.82;53.41
81509;BME280;70930;52.412;13.554;2023-09-19T08:46:47;100552.72;;;18.83;53.79
81509;BME280;70930;52.412;13.554;2023-09-19T08:52:43;100561.16;;;18.86;53.69
81509;BME280;70930;52.412;13.554;2023-09-19T08:55:31;100563.13;;;19.03;54.02
81509;BME280;70930;52.412;13.554;2023-09-19T08:58:19;100566.50;;;19.22;53.21
81509;BME280;70930;52.412;13.554;2023-09-19T09:01:07;100565.56;;;19.16;51.70
81509;BME280;70930;52.412;13.554;2023-09-19T09:03:55;100563.31;;;19.25;50.84
81509;BME280;70930;52.412;13.554;2023-09-19T09:06:42;100572.56;;;19.17;51.18
81509;BME280;70930;52.412;13.554;2023-09-19T09:09:28;100572.09;;;19.20;52.00
81509;BME280;70930;52.412;13.554;2023-09-19T09:12:14;100579.72;;;19.00;51.56
81509;BME280;70930;52.412;13.554;2023-09-19T09:15:00;100569.44;;;18.97;51.60
81509;BME280;70930;52.412;13.554;2023-09-19T09:17:47;100572.72;;;19.10;52.53
81509;BME280;70930;52.412;13.554;2023-09-19T09:20:33;100578.50;;;19.43;50.44
81509;BME280;70930;52.412;13.554;2023-09-19T09:23:19;100590.84;;;19.27;49.74
81509;BME280;70930;52.412;13.554;2023-09-19T09:26:04;100602.88;;;19.12;50.52
81509;BME280;70930;52.412;13.554;2023-09-19T09:28:52;100587.19;;;19.09;50.17
81509;BME280;70930;52.412;13.554;2023-09-19T09:31:39;100585.56;;;19.20;49.76
81509;BME280;70930;52.412;13.554;2023-09-19T09:34:34;100585.56;;;19.20;49.55
81509;BME280;70930;52.412;13.554;2023-09-19T09:37:20;100581.78;;;19.33;48.60
81509;BME280;70930;52.412;13.554;2023-09-19T09:40:06;100592.59;;;19.09;47.05
81509;BME280;70930;52.412;13.554;2023-09-19T09:43:00;100600.31;;;19.06;47.72
81509;BME280;70930;52.412;13.554;2023-09-19T09:45:48;100606.88;;;19.10;47.40
81509;BME280;70930;52.412;13.554;2023-09-19T09:49:03;100601.50;;;18.98;48.52
81509;BME280;70930;52.412;13.554;2023-09-19T09:52:03;100603.94;;;19.23;48.78
81509;BME280;70930;52.412;13.554;2023-09-19T09:55:11;100607.69;;;19.22;48.09
81509;BME280;70930;52.412;13.554;2023-09-19T09:58:24;100607.81;;;19.04;46.64
81509;BME280;70930;52.412;13.554;2023-09-19T10:01:14;100601.25;;;18.88;47.44
81509;BME280;70930;52.412;13.554;2023-09-19T10:04:01;100606.03;;;19.09;47.85
81509;BME280;70930;52.412;13.554;2023-09-19T10:06:46;100601.44;;;19.45;46.83
81509;BME280;70930;52.412;13.554;2023-09-19T10:09:46;100606.13;;;19.50;45.84
81509;BME280;70930;52.412;13.554;2023-09-19T10:12:42;100605.06;;;19.51;46.49
81509;BME280;70930;52.412;13.554;2023-09-19T10:15:31;100614.41;;;19.60;46.06
81509;BME280;70930;52.412;13.554;2023-09-19T10:18:22;100608.97;;;19.83;45.88
81509;BME280;70930;52.412;13.554;2023-09-19T10:21:09;100612.66;;;20.06;45.87
81509;BME280;70930;52.412;13.554;2023-09-19T10:23:58;100611.31;;;20.20;45.28
81509;BME280;70930;52.412;13.554;2023-09-19T10:26:45;100618.63;;;20.37;45.98
81509;BME280;70930;52.412;13.554;2023-09-19T10:29:32;100611.59;;;20.07;45.03
81509;BME280;70930;52.412;13.554;2023-09-19T10:32:22;100618.31;;;20.04;44.51
81509;BME280;70930;52.412;13.554;2023-09-19T10:35:11;100610.47;;;20.20;45.66
81509;BME280;70930;52.412;13.554;2023-09-19T10:38:00;100617.78;;;20.36;44.97
81509;BME280;70930;52.412;13.554;2023-09-19T10:40:51;100606.16;;;20.19;44.90
81509;BME280;70930;52.412;13.554;2023-09-19T10:43:38;100606.41;;;20.17;45.31
81509;BME280;70930;52.412;13.554;2023-09-19T10:46:24;100603.22;;;20.20;46.11
81509;BME280;70930;52.412;13.554;2023-09-19T10:49:11;100599.97;;;20.35;46.07
81509;BME280;70930;52.412;13.554;2023-09-19T10:51:59;100598.06;;;20.64;45.83
81509;BME280;70930;52.412;13.554;2023-09-19T10:54:48;100598.88;;;20.81;45.24
81509;BME280;70930;52.412;13.554;2023-09-19T10:57:36;100593.41;;;20.76;43.06
81509;BME280;70930;52.412;13.554;2023-09-19T11:00:22;100604.03;;;20.83;41.58
81509;BME280;70930;52.412;13.554;2023-09-19T11:06:11;100605.41;;;20.86;39.99
81509;BME280;70930;52.412;13.554;2023-09-19T11:09:03;100603.19;;;20.99;40.11
81509;BME280;70930;52.412;13.554;2023-09-19T11:11:55;100600.66;;;21.48;39.47
81509;BME280;70930;52.412;13.554;2023-09-19T11:14:45;100589.59;;;21.50;38.82
81509;BME280;70930;52.412;13.554;2023-09-19T11:20:20;100611.75;;;21.30;37.75
81509;BME280;70930;52.412;13.554;2023-09-19T11:23:26;100608.91;;;21.03;37.18
81509;BME280;70930;52.412;13.554;2023-09-19T11:26:44;100609.19;;;20.68;38.77
81509;BME280;70930;52.412;13.554;2023-09-19T11:29:37;100619.88;;;20.63;39.21
81509;BME280;70930;52.412;13.554;2023-09-19T11:36:11;100608.50;;;21.11;38.60
81509;BME280;70930;52.412;13.554;2023-09-19T11:39:00;100607.97;;;21.31;38.59
81509;BME280;70930;52.412;13.554;2023-09-19T11:41:52;100607.38;;;21.90;38.79
81509;BME280;70930;52.412;13.554;2023-09-19T11:44:41;100615.97;;;21.87;36.99
81509;BME280;70930;52.412;13.554;2023-09-19T11:47:27;100610.28;;;22.10;37.03
81509;BME280;70930;52.412;13.554;2023-09-19T11:50:19;100618.13;;;22.12;36.51
81509;BME280;70930;52.412;13.554;2023-09-19T11:53:05;100615.66;;;21.83;36.36
81509;BME280;70930;52.412;13.554;2023-09-19T11:55:51;100621.13;;;21.88;36.40
81509;BME280;70930;52.412;13.554;2023-09-19T11:58:37;100628.34;;;21.83;36.71
81509;BME280;70930;52.412;13.554;2023-09-19T12:01:25;100628.34;;;21.61;37.25
81509;BME280;70930;52.412;13.554;2023-09-19T12:04:14;100623.44;;;21.79;37.28
81509;BME280;70930;52.412;13.554;2023-09-19T12:07:00;100617.06;;;21.86;36.75
81509;BME280;70930;52.412;13.554;2023-09-19T12:10:03;100625.53;;;21.72;37.83
81509;BME280;70930;52.412;13.554;2023-09-19T12:12:49;100629.25;;;21.66;37.45
81509;BME280;70930;52.412;13.554;2023-09-19T12:15:35;100626.19;;;21.41;37.71
81509;BME280;70930;52.412;13.554;2023-09-19T12:18:30;100625.16;;;21.25;37.73
81509;BME280;70930;52.412;13.554;2023-09-19T12:21:30;100634.41;;;21.12;38.01
81509;BME280;70930;52.412;13.554;2023-09-19T12:24:16;100634.13;;;21.47;37.28
81509;BME280;70930;52.412;13.554;2023-09-19T12:27:06;100623.88;;;21.49;37.36
81509;BME280;70930;52.412;13.554;2023-09-19T12:29:51;100622.19;;;21.65;37.26
81509;BME280;70930;52.412;13.554;2023-09-19T12:32:40;100620.25;;;21.61;37.19
81509;BME280;70930;52.412;13.554;2023-09-19T12:35:30;100618.31;;;21.56;36.80
81509;BME280;70930;52.412;13.554;2023-09-19T12:38:26;100621.81;;;21.56;36.95
81509;BME280;70930;52.412;13.554;2023-09-19T12:41:20;100621.94;;;21.89;36.48
81509;BME280;70930;52.412;13.554;2023-09-19T12:44:10;100619.00;;;21.68;37.08
81509;BME280;70930;52.412;13.554;2023-09-19T12:46:58;100622.88;;;21.99;36.78
81509;BME280;70930;52.412;13.554;2023-09-19T12:50:13;100623.63;;;22.17;36.74
81509;BME280;70930;52.412;13.554;2023-09-19T12:53:02;100625.63;;;22.26;36.60
81509;BME280;70930;52.412;13.554;2023-09-19T12:55:58;100615.53;;;22.17;37.15
81509;BME280;70930;52.412;13.554;2023-09-19T12:58:54;100604.59;;;22.12;36.60
81509;BME280;70930;52.412;13.554;2023-09-19T13:01:41;100604.75;;;22.22;36.11
81509;BME280;70930;52.412;13.554;2023-09-19T13:04:38;100605.38;;;22.07;36.46
81509;BME280;70930;52.412;13.554;2023-09-19T13:07:40;100612.69;;;21.85;36.89
81509;BME280;70930;52.412;13.554;2023-09-19T13:10:28;100615.41;;;21.85;37.31
81509;BME280;70930;52.412;13.554;2023-09-19T13:13:24;100611.69;;;21.91;37.00
81509;BME280;70930;52.412;13.554;2023-09-19T13:16:13;100601.50;;;21.98;36.32
81509;BME280;70930;52.412;13.554;2023-09-19T13:19:07;100606.84;;;21.93;36.17
81509;BME280;70930;52.412;13.554;2023-09-19T13:21:52;100617.38;;;22.16;36.10
81509;BME280;70930;52.412;13.554;2023-09-19T13:24:40;100618.28;;;22.00;36.89
81509;BME280;70930;52.412;13.554;2023-09-19T13:27:26;100617.66;;;21.93;36.42
81509;BME280;70930;52.412;13.554;2023-09-19T13:30:14;100619.41;;;22.04;36.00
81509;BME280;70930;52.412;13.554;2023-09-19T13:33:08;100618.31;;;21.78;36.27
81509;BME280;70930;52.412;13.554;2023-09-19T13:35:54;100621.16;;;21.66;36.58
81509;BME280;70930;52.412;13.554;2023-09-19T13:38:42;100612.91;;;21.56;35.96
81509;BME280;70930;52.412;13.554;2023-09-19T13:41:28;100616.25;;;21.63;36.66
81509;BME280;70930;52.412;13.554;2023-09-19T13:44:14;100613.16;;;21.54;36.18
81509;BME280;70930;52.412;13.554;2023-09-19T13:46:59;100619.00;;;21.46;36.25
81509;BME280;70930;52.412;13.554;2023-09-19T13:49:48;100610.84;;;21.24;37.35
81509;BME280;70930;52.412;13.554;2023-09-19T13:52:36;100613.78;;;21.40;37.03
81509;BME280;70930;52.412;13.554;2023-09-19T13:55:21;100608.69;;;21.43;37.04
81509;BME280;70930;52.412;13.554;2023-09-19T13:58:07;100606.84;;;21.49;37.14
81509;BME280;70930;52.412;13.554;2023-09-19T14:00:53;100604.66;;;21.68;36.45
81509;BME280;70930;52.412;13.554;2023-09-19T14:03:41;100595.44;;;21.64;36.67
81509;BME280;70930;52.412;13.554;2023-09-19T14:06:31;100600.75;;;21.37;36.80
81509;BME280;70930;52.412;13.554;2023-09-19T14:09:18;100595.28;;;21.31;37.15
81509;BME280;70930;52.412;13.554;2023-09-19T14:12:05;100595.41;;;21.42;36.55
81509;BME280;70930;52.412;13.554;2023-09-19T14:14:50;100591.75;;;21.31;36.70
81509;BME280;70930;52.412;13.554;2023-09-19T14:17:37;100597.50;;;21.35;36.72
81509;BME280;70930;52.412;13.554;2023-09-19T14:20:23;100591.34;;;21.39;37.05
81509;BME280;70930;52.412;13.554;2023-09-19T14:23:08;100586.50;;;21.41;36.57
81509;BME280;70930;52.412;13.554;2023-09-19T14:25:54;100600.97;;;21.52;37.31
81509;BME280;70930;52.412;13.554;2023-09-19T14:28:39;100607.63;;;21.44;37.11
81509;BME280;70930;52.412;13.554;2023-09-19T14:31:25;100603.16;;;21.16;37.96
81509;BME280;70930;52.412;13.554;2023-09-19T14:34:11;100598.75;;;21.10;38.16
81509;BME280;70930;52.412;13.554;2023-09-19T14:36:56;100602.09;;;21.17;37.71
81509;BME280;70930;52.412;13.554;2023-09-19T14:39:49;100602.66;;;21.19;37.92
81509;BME280;70930;52.412;13.554;2023-09-19T14:42:39;100606.19;;;21.20;37.93
81509;BME280;70930;52.412;13.554;2023-09-19T14:45:24;100604.88;;;21.22;38.66
81509;BME280;70930;52.412;13.554;2023-09-19T14:48:10;100600.63;;;21.09;38.27
81509;BME280;70930;52.412;13.554;2023-09-19T14:51:02;100598.25;;;21.13;38.26